sensor_id;sensor_type;location;lat;lon;timestamp;P1;durP1;ratioP1;P2;durP2;ratioP2
24173;SDS011;12324;48.146;11.502;2023-12-07T00:02:03;21.88;;;13.82;;
24173;SDS011;12324;48.146;11.502;2023-12-07T00:04:30;22.23;;;13.02;;
24173;SDS011;12324;48.146;11.502;2023-12-07T00:06:57;22.85;;;12.85;;
24173;SDS011;12324;48.146;11.502;2023-12-07T00:09:24;22.38;;;13.43;;
24173;SDS011;12324;48.146;11.502;2023-12-07T00:11:51;21.35;;;13.13;;
24173;SDS011;12324;48.146;11.502;2023-12-07T00:14:18;22.33;;;14.07;;
24173;SDS011;12324;48.146;11.502;2023-12-07T00:16:45;22.80;;;13.68;;
24173;SDS011;12324;48.146;11.502;2023-12-07T00:19:12;24.02;;;14.85;;
24173;SDS011;12324;48.146;11.502;2023-12-07T00:21:39;23.23;;;15.68;;
24173;SDS011;12324;48.146;11.502;2023-12-07T00:24:06;26.13;;;15.77;;
24173;SDS011;12324;48.146;11.502;2023-12-07T00:26:33;24.75;;;15.52;;
24173;SDS011;12324;48.146;11.502;2023-12-07T00:29:00;24.30;;;16.73;;
24173;SDS011;12324;48.146;11.502;2023-12-07T00:31:27;26.42;;;15.50;;
24173;SDS011;12324;48.146;11.502;2023-12-07T00:33:54;23.77;;;15.50;;
24173;SDS011;12324;48.146;11.502;2023-12-07T00:36:21;23.27;;;15.43;;
24173;SDS011;12324;48.146;11.502;2023-12-07T00:38:47;26.52;;;16.58;;
24173;SDS011;12324;48.146;11.502;2023-12-07T00:41:14;23.02;;;14.70;;
24173;SDS011;12324;48.146;11.502;2023-12-07T00:43:41;24.77;;;15.82;;
24173;SDS011;12324;48.146;11.502;2023-12-07T00:46:08;26.92;;;15.90;;
24173;SDS011;12324;48.146;11.502;2023-12-07T00:48:35;27.50;;;17.98;;
24173;SDS011;12324;48.146;11.502;2023-12-07T00:51:02;26.13;;;16.00;;
24173;SDS011;12324;48.146;11.502;2023-12-07T00:53:29;24.88;;;16.00;;
24173;SDS011;12324;48.146;11.502;2023-12-07T00:55:55;26.67;;;16.92;;
24173;SDS011;12324;48.146;11.502;2023-12-07T00:58:22;25.75;;;16.33;;
24173;SDS011;12324;48.146;11.502;2023-12-07T01:00:49;25.52;;;17.42;;
24173;SDS011;12324;48.146;11.502;2023-12-07T01:03:17;26.55;;;17.45;;
24173;SDS011;12324;48.146;11.502;2023-12-07T01:05:43;27.52;;;18.10;;
24173;SDS011;12324;48.146;11.502;2023-12-07T01:08:11;27.33;;;17.65;;
24173;SDS011;12324;48.146;11.502;2023-12-07T01:10:37;30.58;;;19.38;;
24173;SDS011;12324;48.146;11.502;2023-12-07T01:13:04;28.13;;;17.80;;
24173;SDS011;12324;48.146;11.502;2023-12-07T01:15:32;25.98;;;17.02;;
24173;SDS011;12324;48.146;11.502;2023-12-07T01:17:58;29.25;;;17.63;;
24173;SDS011;12324;48.146;11.502;2023-12-07T01:20:25;32.30;;;19.55;;
24173;SDS011;12324;48.146;11.502;2023-12-07T01:22:52;30.35;;;18.55;;
24173;SDS011;12324;48.146;11.502;2023-12-07T01:25:19;29.38;;;19.55;;
24173;SDS011;12324;48.146;11.502;2023-12-07T01:27:49;28.52;;;19.42;;
24173;SDS011;12324;48.146;11.502;2023-12-07T01:30:15;31.92;;;20.88;;
24173;SDS011;12324;48.146;11.502;2023-12-07T01:32:43;28.00;;;18.08;;
24173;SDS011;12324;48.146;11.502;2023-12-07T01:35:10;28.02;;;18.52;;
24173;SDS011;12324;48.146;11.502;2023-12-07T01:37:37;27.98;;;16.88;;
24173;SDS011;12324;48.146;11.502;2023-12-07T01:40:04;29.27;;;19.45;;
24173;SDS011;12324;48.146;11.502;2023-12-07T01:42:36;30.42;;;19.30;;
24173;SDS011;12324;48.146;11.502;2023-12-07T01:45:04;33.28;;;20.33;;
24173;SDS011;12324;48.146;11.502;2023-12-07T01:47:32;26.13;;;17.17;;
24173;SDS011;12324;48.146;11.502;2023-12-07T01:50:01;30.10;;;19.70;;
24173;SDS011;12324;48.146;11.502;2023-12-07T01:52:32;28.75;;;19.25;;
24173;SDS011;12324;48.146;11.502;2023-12-07T01:54:59;31.60;;;19.75;;
24173;SDS011;12324;48.146;11.502;2023-12-07T01:57:26;31.98;;;21.15;;
24173;SDS011;12324;48.146;11.502;2023-12-07T01:59:53;29.58;;;18.75;;
24173;SDS011;12324;48.146;11.502;2023-12-07T02:02:20;27.48;;;20.15;;
24173;SDS011;12324;48.146;11.502;2023-12-07T02:04:48;33.15;;;19.30;;
24173;SDS011;12324;48.146;11.502;2023-12-07T02:07:15;34.60;;;21.65;;
24173;SDS011;12324;48.146;11.502;2023-12-07T02:09:43;33.17;;;20.67;;
24173;SDS011;12324;48.146;11.502;2023-12-07T02:12:10;34.13;;;21.42;;
24173;SDS011;12324;48.146;11.502;2023-12-07T02:14:36;31.33;;;20.95;;
24173;SDS011;12324;48.146;11.502;2023-12-07T02:17:07;32.35;;;21.55;;
24173;SDS011;12324;48.146;11.502;2023-12-07T02:19:55;30.77;;;20.63;;
24173;SDS011;12324;48.146;11.502;2023-12-07T02:22:41;28.70;;;19.57;;
24173;SDS011;12324;48.146;11.502;2023-12-07T02:25:14;31.65;;;19.80;;
24173;SDS011;12324;48.146;11.502;2023-12-07T02:27:43;31.98;;;21.75;;
24173;SDS011;12324;48.146;11.502;2023-12-07T02:30:14;33.85;;;20.38;;
24173;SDS011;12324;48.146;11.502;2023-12-07T02:32:43;30.27;;;20.80;;
24173;SDS011;12324;48.146;11.502;2023-12-07T02:35:11;35.35;;;22.15;;
24173;SDS011;12324;48.146;11.502;2023-12-07T02:37:43;33.10;;;21.50;;
24173;SDS011;12324;48.146;11.502;2023-12-07T02:40:23;35.60;;;21.00;;
24173;SDS011;12324;48.146;11.502;2023-12-07T02:42:52;33.17;;;20.55;;
24173;SDS011;12324;48.146;11.502;2023-12-07T02:45:20;30.35;;;20.25;;
24173;SDS011;12324;48.146;11.502;2023-12-07T02:47:47;33.47;;;22.20;;
24173;SDS011;12324;48.146;11.502;2023-12-07T02:50:14;35.00;;;21.38;;
24173;SDS011;12324;48.146;11.502;2023-12-07T02:52:41;33.35;;;21.25;;
24173;SDS011;12324;48.146;11.502;2023-12-07T02:55:08;36.78;;;24.40;;
24173;SDS011;12324;48.146;11.502;2023-12-07T02:57:35;36.13;;;23.30;;
24173;SDS011;12324;48.146;11.502;2023-12-07T03:00:03;35.13;;;23.00;;
24173;SDS011;12324;48.146;11.502;2023-12-07T03:02:34;34.28;;;22.88;;
24173;SDS011;12324;48.146;11.502;2023-12-07T03:05:02;30.90;;;21.75;;
24173;SDS011;12324;48.146;11.502;2023-12-07T03:07:29;34.15;;;21.52;;
24173;SDS011;12324;48.146;11.502;2023-12-07T03:09:56;34.00;;;21.73;;
24173;SDS011;12324;48.146;11.502;2023-12-07T03:12:23;34.58;;;22.60;;
24173;SDS011;12324;48.146;11.502;2023-12-07T03:14:51;33.45;;;21.50;;
24173;SDS011;12324;48.146;11.502;2023-12-07T03:17:18;33.42;;;22.15;;
24173;SDS011;12324;48.146;11.502;2023-12-07T03:19:45;31.70;;;20.58;;
24173;SDS011;12324;48.146;11.502;2023-12-07T03:22:11;33.00;;;21.05;;
24173;SDS011;12324;48.146;11.502;2023-12-07T03:24:40;32.45;;;20.88;;
24173;SDS011;12324;48.146;11.502;2023-12-07T03:27:11;31.77;;;21.13;;
24173;SDS011;12324;48.146;11.502;2023-12-07T03:29:38;34.03;;;22.00;;
24173;SDS011;12324;48.146;11.502;2023-12-07T03:32:05;30.38;;;20.13;;
24173;SDS011;12324;48.146;11.502;2023-12-07T03:34:32;33.00;;;19.80;;
24173;SDS011;12324;48.146;11.502;2023-12-07T03:36:59;30.08;;;18.83;;
24173;SDS011;12324;48.146;11.502;2023-12-07T03:39:26;32.58;;;21.20;;
24173;SDS011;12324;48.146;11.502;2023-12-07T03:41:53;31.05;;;20.05;;
24173;SDS011;12324;48.146;11.502;2023-12-07T03:44:20;28.30;;;19.23;;
24173;SDS011;12324;48.146;11.502;2023-12-07T03:46:46;29.33;;;18.55;;
24173;SDS011;12324;48.146;11.502;2023-12-07T03:49:14;29.15;;;19.50;;
24173;SDS011;12324;48.146;11.502;2023-12-07T03:51:41;28.63;;;19.75;;
24173;SDS011;12324;48.146;11.502;2023-12-07T03:54:08;29.98;;;19.25;;
24173;SDS011;12324;48.146;11.502;2023-12-07T03:56:35;29.98;;;19.13;;
24173;SDS011;12324;48.146;11.502;2023-12-07T03:59:02;28.60;;;18.25;;
24173;SDS011;12324;48.146;11.502;2023-12-07T04:01:28;26.75;;;18.95;;
24173;SDS011;12324;48.146;11.502;2023-12-07T04:03:56;31.33;;;20.00;;
24173;SDS011;12324;48.146;11.502;2023-12-07T04:06:24;29.70;;;18.73;;
24173;SDS011;12324;48.146;11.502;2023-12-07T04:08:51;29.35;;;18.63;;
24173;SDS011;12324;48.146;11.502;2023-12-07T04:11:18;29.15;;;19.02;;
24173;SDS011;12324;48.146;11.502;2023-12-07T04:13:44;28.08;;;19.33;;
24173;SDS011;12324;48.146;11.502;2023-12-07T04:16:11;28.02;;;18.73;;
24173;SDS011;12324;48.146;11.502;2023-12-07T04:18:38;29.77;;;18.88;;
24173;SDS011;12324;48.146;11.502;2023-12-07T04:21:05;28.50;;;19.20;;
24173;SDS011;12324;48.146;11.502;2023-12-07T04:23:32;29.23;;;17.63;;
24173;SDS011;12324;48.146;11.502;2023-12-07T04:25:59;28.42;;;19.08;;
24173;SDS011;12324;48.146;11.502;2023-12-07T04:28:26;28.30;;;18.55;;
24173;SDS011;12324;48.146;11.502;2023-12-07T04:30:53;30.73;;;18.13;;
24173;SDS011;12324;48.146;11.502;2023-12-07T04:33:19;28.23;;;18.40;;
24173;SDS011;12324;48.146;11.502;2023-12-07T04:35:46;32.97;;;18.23;;
24173;SDS011;12324;48.146;11.502;2023-12-07T04:38:13;30.98;;;18.75;;
24173;SDS011;12324;48.146;11.502;2023-12-07T04:40:40;29.25;;;18.60;;
24173;SDS011;12324;48.146;11.502;2023-12-07T04:43:08;27.48;;;17.27;;
24173;SDS011;12324;48.146;11.502;2023-12-07T04:45:35;27.45;;;18.05;;
24173;SDS011;12324;48.146;11.502;2023-12-07T04:48:02;27.00;;;16.60;;
24173;SDS011;12324;48.146;11.502;2023-12-07T04:50:31;27.83;;;16.45;;
24173;SDS011;12324;48.146;11.502;2023-12-07T04:52:58;25.02;;;15.85;;
24173;SDS011;12324;48.146;11.502;2023-12-07T04:55:25;28.27;;;17.63;;
24173;SDS011;12324;48.146;11.502;2023-12-07T04:57:53;25.05;;;16.48;;
24173;SDS011;12324;48.146;11.502;2023-12-07T05:00:20;26.85;;;17.73;;
24173;SDS011;12324;48.146;11.502;2023-12-07T05:02:48;26.60;;;14.82;;
24173;SDS011;12324;48.146;11.502;2023-12-07T05:05:15;27.30;;;16.55;;
24173;SDS011;12324;48.146;11.502;2023-12-07T05:07:42;22.45;;;13.60;;
24173;SDS011;12324;48.146;11.502;2023-12-07T05:10:10;21.98;;;13.63;;
24173;SDS011;12324;48.146;11.502;2023-12-07T05:12:37;25.83;;;15.40;;
24173;SDS011;12324;48.146;11.502;2023-12-07T05:15:04;23.73;;;13.57;;
24173;SDS011;12324;48.146;11.502;2023-12-07T05:17:32;22.05;;;14.05;;
24173;SDS011;12324;48.146;11.502;2023-12-07T05:19:59;24.60;;;14.95;;
24173;SDS011;12324;48.146;11.502;2023-12-07T05:22:28;25.42;;;14.70;;
24173;SDS011;12324;48.146;11.502;2023-12-07T05:24:55;23.95;;;15.00;;
24173;SDS011;12324;48.146;11.502;2023-12-07T05:27:22;25.33;;;13.13;;
24173;SDS011;12324;48.146;11.502;2023-12-07T05:29:50;22.58;;;13.60;;
24173;SDS011;12324;48.146;11.502;2023-12-07T05:32:17;22.10;;;12.73;;
24173;SDS011;12324;48.146;11.502;2023-12-07T05:34:44;24.30;;;13.38;;
24173;SDS011;12324;48.146;11.502;2023-12-07T05:37:12;25.80;;;14.02;;
24173;SDS011;12324;48.146;11.502;2023-12-07T05:39:39;29.30;;;13.43;;
24173;SDS011;12324;48.146;11.502;2023-12-07T05:42:06;22.05;;;13.07;;
24173;SDS011;12324;48.146;11.502;2023-12-07T05:44:33;27.27;;;14.23;;
24173;SDS011;12324;48.146;11.502;2023-12-07T05:47:00;23.88;;;12.38;;
24173;SDS011;12324;48.146;11.502;2023-12-07T05:49:27;23.98;;;13.10;;
24173;SDS011;12324;48.146;11.502;2023-12-07T05:51:54;28.73;;;13.82;;
24173;SDS011;12324;48.146;11.502;2023-12-07T05:54:21;23.77;;;13.98;;
24173;SDS011;12324;48.146;11.502;2023-12-07T05:56:50;23.23;;;13.93;;
24173;SDS011;12324;48.146;11.502;2023-12-07T05:59:17;24.80;;;13.70;;
24173;SDS011;12324;48.146;11.502;2023-12-07T06:01:44;23.75;;;14.50;;
24173;SDS011;12324;48.146;11.502;2023-12-07T06:04:11;24.60;;;13.02;;
24173;SDS011;12324;48.146;11.502;2023-12-07T06:06:39;26.00;;;13.50;;
24173;SDS011;12324;48.146;11.502;2023-12-07T06:09:06;21.20;;;12.65;;
24173;SDS011;12324;48.146;11.502;2023-12-07T06:11:32;34.67;;;14.40;;
24173;SDS011;12324;48.146;11.502;2023-12-07T06:14:01;23.98;;;13.20;;
24173;SDS011;12324;48.146;11.502;2023-12-07T06:16:28;22.15;;;12.13;;
24173;SDS011;12324;48.146;11.502;2023-12-07T06:18:54;26.83;;;13.73;;
24173;SDS011;12324;48.146;11.502;2023-12-07T06:21:21;26.25;;;14.40;;
24173;SDS011;12324;48.146;11.502;2023-12-07T06:23:48;33.75;;;14.88;;
24173;SDS011;12324;48.146;11.502;2023-12-07T06:26:16;34.83;;;16.80;;
24173;SDS011;12324;48.146;11.502;2023-12-07T06:28:43;24.95;;;13.93;;
24173;SDS011;12324;48.146;11.502;2023-12-07T06:31:11;33.58;;;17.25;;
24173;SDS011;12324;48.146;11.502;2023-12-07T06:33:38;33.30;;;17.95;;
24173;SDS011;12324;48.146;11.502;2023-12-07T06:36:06;34.83;;;16.83;;
24173;SDS011;12324;48.146;11.502;2023-12-07T06:38:33;30.45;;;14.98;;
24173;SDS011;12324;48.146;11.502;2023-12-07T06:41:00;24.52;;;14.30;;
24173;SDS011;12324;48.146;11.502;2023-12-07T06:43:27;23.30;;;12.50;;
24173;SDS011;12324;48.146;11.502;2023-12-07T06:45:54;22.02;;;12.30;;
24173;SDS011;12324;48.146;11.502;2023-12-07T06:48:21;26.85;;;12.98;;
24173;SDS011;12324;48.146;11.502;2023-12-07T06:50:47;22.77;;;13.10;;
24173;SDS011;12324;48.146;11.502;2023-12-07T06:53:15;22.58;;;12.85;;
24173;SDS011;12324;48.146;11.502;2023-12-07T06:55:42;22.92;;;11.82;;
24173;SDS011;12324;48.146;11.502;2023-12-07T06:58:11;24.80;;;12.52;;
24173;SDS011;12324;48.146;11.502;2023-12-07T07:00:38;22.70;;;12.40;;
24173;SDS011;12324;48.146;11.502;2023-12-07T07:03:05;25.58;;;13.68;;
24173;SDS011;12324;48.146;11.502;2023-12-07T07:05:32;24.42;;;12.90;;
24173;SDS011;12324;48.146;11.502;2023-12-07T07:07:59;23.25;;;12.80;;
24173;SDS011;12324;48.146;11.502;2023-12-07T07:10:26;23.52;;;13.48;;
24173;SDS011;12324;48.146;11.502;2023-12-07T07:12:53;24.75;;;11.98;;
24173;SDS011;12324;48.146;11.502;2023-12-07T07:15:20;21.42;;;12.40;;
24173;SDS011;12324;48.146;11.502;2023-12-07T07:17:47;37.35;;;28.38;;
24173;SDS011;12324;48.146;11.502;2023-12-07T07:20:14;44.83;;;33.20;;
24173;SDS011;12324;48.146;11.502;2023-12-07T07:22:40;32.83;;;25.88;;
24173;SDS011;12324;48.146;11.502;2023-12-07T07:25:08;28.00;;;19.25;;
24173;SDS011;12324;48.146;11.502;2023-12-07T07:27:35;24.80;;;15.38;;
24173;SDS011;12324;48.146;11.502;2023-12-07T07:30:02;26.52;;;13.77;;
24173;SDS011;12324;48.146;11.502;2023-12-07T07:32:30;21.70;;;11.88;;
24173;SDS011;12324;48.146;11.502;2023-12-07T07:34:57;23.10;;;12.80;;
24173;SDS011;12324;48.146;11.502;2023-12-07T07:37:25;22.85;;;13.27;;
24173;SDS011;12324;48.146;11.502;2023-12-07T07:39:53;22.98;;;12.85;;
24173;SDS011;12324;48.146;11.502;2023-12-07T07:42:19;26.55;;;13.20;;
24173;SDS011;12324;48.146;11.502;2023-12-07T07:44:46;21.45;;;12.65;;
24173;SDS011;12324;48.146;11.502;2023-12-07T07:47:13;22.75;;;12.10;;
24173;SDS011;12324;48.146;11.502;2023-12-07T07:49:40;23.73;;;13.32;;
24173;SDS011;12324;48.146;11.502;2023-12-07T07:52:07;20.85;;;12.18;;
24173;SDS011;12324;48.146;11.502;2023-12-07T07:54:34;22.35;;;13.50;;
24173;SDS011;12324;48.146;11.502;2023-12-07T07:57:02;23.05;;;13.20;;
24173;SDS011;12324;48.146;11.502;2023-12-07T07:59:30;21.10;;;12.65;;
24173;SDS011;12324;48.146;11.502;2023-12-07T08:01:58;26.30;;;13.32;;
24173;SDS011;12324;48.146;11.502;2023-12-07T08:04:25;22.05;;;12.32;;
24173;SDS011;12324;48.146;11.502;2023-12-07T08:06:52;26.98;;;14.00;;
24173;SDS011;12324;48.146;11.502;2023-12-07T08:09:19;22.13;;;11.73;;
24173;SDS011;12324;48.146;11.502;2023-12-07T08:11:46;20.35;;;12.57;;
24173;SDS011;12324;48.146;11.502;2023-12-07T08:14:12;20.45;;;11.48;;
24173;SDS011;12324;48.146;11.502;2023-12-07T08:16:42;24.92;;;12.68;;
24173;SDS011;12324;48.146;11.502;2023-12-07T08:19:10;21.30;;;11.25;;
24173;SDS011;12324;48.146;11.502;2023-12-07T08:21:37;21.83;;;11.48;;
24173;SDS011;12324;48.146;11.502;2023-12-07T08:24:05;20.88;;;12.23;;
24173;SDS011;12324;48.146;11.502;2023-12-07T08:26:32;22.38;;;11.68;;
24173;SDS011;12324;48.146;11.502;2023-12-07T08:28:58;21.60;;;12.00;;
24173;SDS011;12324;48.146;11.502;2023-12-07T08:31:25;22.77;;;11.88;;
24173;SDS011;12324;48.146;11.502;2023-12-07T08:33:52;20.67;;;10.90;;
24173;SDS011;12324;48.146;11.502;2023-12-07T08:36:19;19.35;;;10.68;;
24173;SDS011;12324;48.146;11.502;2023-12-07T08:38:47;20.60;;;10.73;;
24173;SDS011;12324;48.146;11.502;2023-12-07T08:41:14;20.80;;;10.95;;
24173;SDS011;12324;48.146;11.502;2023-12-07T08:43:41;19.10;;;10.38;;
24173;SDS011;12324;48.146;11.502;2023-12-07T08:46:08;19.45;;;10.20;;
24173;SDS011;12324;48.146;11.502;2023-12-07T08:48:38;16.52;;;8.65;;
24173;SDS011;12324;48.146;11.502;2023-12-07T08:51:08;20.55;;;9.23;;
24173;SDS011;12324;48.146;11.502;2023-12-07T08:53:35;16.23;;;9.25;;
24173;SDS011;12324;48.146;11.502;2023-12-07T08:56:03;18.70;;;9.00;;
24173;SDS011;12324;48.146;11.502;2023-12-07T08:58:30;18.60;;;8.30;;
24173;SDS011;12324;48.146;11.502;2023-12-07T09:00:57;18.80;;;8.35;;
24173;SDS011;12324;48.146;11.502;2023-12-07T09:03:24;16.63;;;8.55;;
24173;SDS011;12324;48.146;11.502;2023-12-07T09:05:54;18.70;;;9.55;;
24173;SDS011;12324;48.146;11.502;2023-12-07T09:08:22;18.27;;;8.77;;
24173;SDS011;12324;48.146;11.502;2023-12-07T09:10:49;15.02;;;7.22;;
24173;SDS011;12324;48.146;11.502;2023-12-07T09:13:17;18.08;;;8.85;;
24173;SDS011;12324;48.146;11.502;2023-12-07T09:15:44;16.75;;;9.07;;
24173;SDS011;12324;48.146;11.502;2023-12-07T09:18:12;17.40;;;7.95;;
24173;SDS011;12324;48.146;11.502;2023-12-07T09:20:39;15.02;;;7.32;;
24173;SDS011;12324;48.146;11.502;2023-12-07T09:23:13;14.20;;;7.50;;
24173;SDS011;12324;48.146;11.502;2023-12-07T09:25:41;15.65;;;7.88;;
24173;SDS011;12324;48.146;11.502;2023-12-07T09:28:09;16.02;;;7.55;;
24173;SDS011;12324;48.146;11.502;2023-12-07T09:30:36;12.55;;;6.10;;
24173;SDS011;12324;48.146;11.502;2023-12-07T09:33:03;16.92;;;7.03;;
24173;SDS011;12324;48.146;11.502;2023-12-07T09:35:32;12.93;;;5.97;;
24173;SDS011;12324;48.146;11.502;2023-12-07T09:38:00;11.95;;;5.75;;
24173;SDS011;12324;48.146;11.502;2023-12-07T09:40:27;12.68;;;6.50;;
24173;SDS011;12324;48.146;11.502;2023-12-07T09:42:55;14.23;;;6.65;;
24173;SDS011;12324;48.146;11.502;2023-12-07T09:45:22;13.98;;;6.22;;
24173;SDS011;12324;48.146;11.502;2023-12-07T09:47:52;13.35;;;6.32;;
24173;SDS011;12324;48.146;11.502;2023-12-07T09:50:21;11.07;;;5.00;;
24173;SDS011;12324;48.146;11.502;2023-12-07T09:52:49;12.15;;;5.43;;
24173;SDS011;12324;48.146;11.502;2023-12-07T09:55:29;10.90;;;4.65;;
24173;SDS011;12324;48.146;11.502;2023-12-07T09:57:57;13.43;;;4.18;;
24173;SDS011;12324;48.146;11.502;2023-12-07T10:00:25;10.52;;;4.72;;
24173;SDS011;12324;48.146;11.502;2023-12-07T10:02:52;11.40;;;4.68;;
24173;SDS011;12324;48.146;11.502;2023-12-07T10:05:20;8.32;;;3.58;;
24173;SDS011;12324;48.146;11.502;2023-12-07T10:07:49;7.00;;;3.47;;
24173;SDS011;12324;48.146;11.502;2023-12-07T10:10:17;9.65;;;3.88;;
24173;SDS011;12324;48.146;11.502;2023-12-07T10:12:51;7.10;;;3.33;;
24173;SDS011;12324;48.146;11.502;2023-12-07T10:15:19;7.50;;;2.97;;
24173;SDS011;12324;48.146;11.502;2023-12-07T10:17:47;6.80;;;3.20;;
24173;SDS011;12324;48.146;11.502;2023-12-07T10:20:16;7.90;;;3.50;;
24173;SDS011;12324;48.146;11.502;2023-12-07T10:22:43;5.75;;;3.20;;
24173;SDS011;12324;48.146;11.502;2023-12-07T10:25:11;7.25;;;3.47;;
24173;SDS011;12324;48.146;11.502;2023-12-07T10:27:40;6.78;;;3.42;;
24173;SDS011;12324;48.146;11.502;2023-12-07T10:30:08;7.57;;;3.45;;
24173;SDS011;12324;48.146;11.502;2023-12-07T10:32:37;9.38;;;3.47;;
24173;SDS011;12324;48.146;11.502;2023-12-07T10:35:07;8.32;;;3.30;;
24173;SDS011;12324;48.146;11.502;2023-12-07T10:37:36;11.55;;;4.97;;
24173;SDS011;12324;48.146;11.502;2023-12-07T10:40:04;5.70;;;3.08;;
24173;SDS011;12324;48.146;11.502;2023-12-07T10:42:32;9.32;;;2.83;;
24173;SDS011;12324;48.146;11.502;2023-12-07T10:45:05;7.40;;;3.00;;
24173;SDS011;12324;48.146;11.502;2023-12-07T10:47:36;4.15;;;2.72;;
24173;SDS011;12324;48.146;11.502;2023-12-07T10:50:07;6.90;;;3.25;;
24173;SDS011;12324;48.146;11.502;2023-12-07T10:52:44;8.80;;;3.72;;
24173;SDS011;12324;48.146;11.502;2023-12-07T10:55:21;8.98;;;3.67;;
24173;SDS011;12324;48.146;11.502;2023-12-07T10:57:52;9.70;;;4.22;;
24173;SDS011;12324;48.146;11.502;2023-12-07T11:00:21;7.60;;;3.72;;
24173;SDS011;12324;48.146;11.502;2023-12-07T11:03:09;8.80;;;3.97;;
24173;SDS011;12324;48.146;11.502;2023-12-07T11:05:37;10.65;;;3.95;;
24173;SDS011;12324;48.146;11.502;2023-12-07T11:08:06;8.25;;;3.92;;
24173;SDS011;12324;48.146;11.502;2023-12-07T11:10:38;9.02;;;3.70;;
24173;SDS011;12324;48.146;11.502;2023-12-07T11:13:40;6.85;;;3.90;;
24173;SDS011;12324;48.146;11.502;2023-12-07T11:16:00;9.60;;;4.00;;
24173;SDS011;12324;48.146;11.502;2023-12-07T11:18:27;8.30;;;3.47;;
24173;SDS011;12324;48.146;11.502;2023-12-07T11:20:55;7.20;;;3.45;;
24173;SDS011;12324;48.146;11.502;2023-12-07T11:23:23;9.35;;;3.47;;
24173;SDS011;12324;48.146;11.502;2023-12-07T11:25:52;8.73;;;3.97;;
24173;SDS011;12324;48.146;11.502;2023-12-07T11:28:42;6.40;;;3.30;;
24173;SDS011;12324;48.146;11.502;2023-12-07T11:31:09;9.80;;;3.25;;
24173;SDS011;12324;48.146;11.502;2023-12-07T11:33:37;6.38;;;3.25;;
24173;SDS011;12324;48.146;11.502;2023-12-07T11:36:06;5.70;;;3.03;;
24173;SDS011;12324;48.146;11.502;2023-12-07T11:38:35;9.00;;;4.25;;
24173;SDS011;12324;48.146;11.502;2023-12-07T11:41:03;8.30;;;4.05;;
24173;SDS011;12324;48.146;11.502;2023-12-07T11:46:04;5.82;;;3.25;;
24173;SDS011;12324;48.146;11.502;2023-12-07T11:48:31;6.00;;;3.38;;
24173;SDS011;12324;48.146;11.502;2023-12-07T11:50:59;7.05;;;3.22;;
24173;SDS011;12324;48.146;11.502;2023-12-07T11:53:28;7.50;;;3.10;;
24173;SDS011;12324;48.146;11.502;2023-12-07T11:55:59;7.93;;;3.47;;
24173;SDS011;12324;48.146;11.502;2023-12-07T11:58:27;7.43;;;3.13;;
24173;SDS011;12324;48.146;11.502;2023-12-07T12:00:54;7.35;;;3.08;;
24173;SDS011;12324;48.146;11.502;2023-12-07T12:03:23;6.45;;;2.97;;
24173;SDS011;12324;48.146;11.502;2023-12-07T12:05:50;6.05;;;2.67;;
24173;SDS011;12324;48.146;11.502;2023-12-07T12:08:18;6.22;;;2.63;;
24173;SDS011;12324;48.146;11.502;2023-12-07T12:10:46;9.93;;;3.35;;
24173;SDS011;12324;48.146;11.502;2023-12-07T12:13:15;6.35;;;2.90;;
24173;SDS011;12324;48.146;11.502;2023-12-07T12:15:42;8.02;;;2.75;;
24173;SDS011;12324;48.146;11.502;2023-12-07T12:18:09;7.20;;;3.00;;
24173;SDS011;12324;48.146;11.502;2023-12-07T12:20:36;7.97;;;2.92;;
24173;SDS011;12324;48.146;11.502;2023-12-07T12:23:03;5.82;;;2.63;;
24173;SDS011;12324;48.146;11.502;2023-12-07T12:25:30;6.03;;;2.90;;
24173;SDS011;12324;48.146;11.502;2023-12-07T12:27:58;9.18;;;3.00;;
24173;SDS011;12324;48.146;11.502;2023-12-07T12:30:30;7.82;;;3.08;;
24173;SDS011;12324;48.146;11.502;2023-12-07T12:32:57;6.60;;;2.85;;
24173;SDS011;12324;48.146;11.502;2023-12-07T12:35:26;7.22;;;3.00;;
24173;SDS011;12324;48.146;11.502;2023-12-07T12:37:53;6.15;;;2.63;;
24173;SDS011;12324;48.146;11.502;2023-12-07T12:40:22;6.70;;;3.05;;
24173;SDS011;12324;48.146;11.502;2023-12-07T12:42:50;6.72;;;2.80;;
24173;SDS011;12324;48.146;11.502;2023-12-07T12:45:21;6.93;;;3.33;;
24173;SDS011;12324;48.146;11.502;2023-12-07T12:47:48;8.23;;;3.22;;
24173;SDS011;12324;48.146;11.502;2023-12-07T12:50:35;11.55;;;3.80;;
24173;SDS011;12324;48.146;11.502;2023-12-07T12:53:03;7.10;;;3.15;;
24173;SDS011;12324;48.146;11.502;2023-12-07T12:55:32;6.43;;;3.30;;
24173;SDS011;12324;48.146;11.502;2023-12-07T12:57:59;8.52;;;3.35;;
24173;SDS011;12324;48.146;11.502;2023-12-07T13:00:27;8.65;;;3.00;;
24173;SDS011;12324;48.146;11.502;2023-12-07T13:02:54;6.40;;;2.80;;
24173;SDS011;12324;48.146;11.502;2023-12-07T13:05:22;8.23;;;3.10;;
24173;SDS011;12324;48.146;11.502;2023-12-07T13:07:49;8.30;;;2.85;;
24173;SDS011;12324;48.146;11.502;2023-12-07T13:10:36;5.35;;;2.80;;
24173;SDS011;12324;48.146;11.502;2023-12-07T13:13:03;5.32;;;2.92;;
24173;SDS011;12324;48.146;11.502;2023-12-07T13:15:30;6.00;;;2.90;;
24173;SDS011;12324;48.146;11.502;2023-12-07T13:17:57;6.55;;;3.28;;
24173;SDS011;12324;48.146;11.502;2023-12-07T13:20:26;5.57;;;2.92;;
24173;SDS011;12324;48.146;11.502;2023-12-07T13:22:55;6.85;;;3.05;;
24173;SDS011;12324;48.146;11.502;2023-12-07T13:25:22;7.22;;;2.70;;
24173;SDS011;12324;48.146;11.502;2023-12-07T13:27:49;8.13;;;2.85;;
24173;SDS011;12324;48.146;11.502;2023-12-07T13:30:17;6.85;;;3.40;;
24173;SDS011;12324;48.146;11.502;2023-12-07T13:32:44;7.72;;;2.90;;
24173;SDS011;12324;48.146;11.502;2023-12-07T13:35:11;7.28;;;3.30;;
24173;SDS011;12324;48.146;11.502;2023-12-07T13:37:39;7.65;;;3.42;;
24173;SDS011;12324;48.146;11.502;2023-12-07T13:40:06;7.47;;;3.20;;
24173;SDS011;12324;48.146;11.502;2023-12-07T13:42:36;7.57;;;3.38;;
24173;SDS011;12324;48.146;11.502;2023-12-07T13:45:03;7.90;;;3.38;;
24173;SDS011;12324;48.146;11.502;2023-12-07T13:47:30;9.93;;;3.45;;
24173;SDS011;12324;48.146;11.502;2023-12-07T13:49:58;10.48;;;3.60;;
24173;SDS011;12324;48.146;11.502;2023-12-07T13:52:26;8.48;;;3.47;;
24173;SDS011;12324;48.146;11.502;2023-12-07T13:54:55;6.68;;;3.30;;
24173;SDS011;12324;48.146;11.502;2023-12-07T13:57:22;8.40;;;3.50;;
24173;SDS011;12324;48.146;11.502;2023-12-07T13:59:53;7.78;;;3.47;;
24173;SDS011;12324;48.146;11.502;2023-12-07T14:02:20;6.25;;;3.08;;
24173;SDS011;12324;48.146;11.502;2023-12-07T14:04:47;6.30;;;3.30;;
24173;SDS011;12324;48.146;11.502;2023-12-07T14:07:18;7.30;;;3.47;;
24173;SDS011;12324;48.146;11.502;2023-12-07T14:09:48;9.13;;;3.25;;
24173;SDS011;12324;48.146;11.502;2023-12-07T14:12:24;8.45;;;3.70;;
24173;SDS011;12324;48.146;11.502;2023-12-07T14:14:51;12.63;;;3.97;;
24173;SDS011;12324;48.146;11.502;2023-12-07T14:17:18;8.98;;;3.65;;
24173;SDS011;12324;48.146;11.502;2023-12-07T14:19:46;7.75;;;3.60;;
24173;SDS011;12324;48.146;11.502;2023-12-07T14:22:18;8.60;;;4.05;;
24173;SDS011;12324;48.146;11.502;2023-12-07T14:24:45;7.47;;;3.60;;
24173;SDS011;12324;48.146;11.502;2023-12-07T14:27:14;10.73;;;4.80;;